createdAt,value
2023-08-29T00:00:40.868Z,97837.28
2023-08-29T00:03:08.651Z,97835.78
2023-08-29T00:05:36.827Z,97827.78
2023-08-29T00:08:04.720Z,97827.47
2023-08-29T00:10:32.746Z,97821.91
2023-08-29T00:13:00.153Z,97831.94
2023-08-29T00:15:27.581Z,97830.97
2023-08-29T00:17:55.312Z,97840.19
2023-08-29T00:20:22.716Z,97828.31
2023-08-29T00:22:50.119Z,97829.03
2023-08-29T00:25:17.743Z,97835.28
2023-08-29T00:27:45.152Z,97849.38
2023-08-29T00:30:13.184Z,97854.69
2023-08-29T00:32:42.208Z,97860.56
2023-08-29T00:35:09.925Z,97881.75
2023-08-29T00:37:37.684Z,97881.91
2023-08-29T00:40:05.897Z,97890.53
2023-08-29T00:42:33.412Z,97891.13
2023-08-29T00:45:00.848Z,97906.19
2023-08-29T00:47:28.982Z,97912.22
2023-08-29T00:49:56.501Z,97883.34
2023-08-29T00:52:23.974Z,97879.97
2023-08-29T00:54:51.723Z,97921.50
2023-08-29T00:57:19.218Z,97934.63
2023-08-29T00:59:46.667Z,97937.81
2023-08-29T01:02:14.327Z,97953.78
2023-08-29T01:04:41.766Z,97953.84
2023-08-29T01:07:09.544Z,97965.16
2023-08-29T01:09:39.134Z,97965.25
2023-08-29T01:12:15.498Z,97959.72
2023-08-29T01:14:56.402Z,97937.09
2023-08-29T01:17:36.364Z,97938.81
2023-08-29T01:20:06.447Z,97935.03
2023-08-29T01:23:14.705Z,97926.16
2023-08-29T01:25:54.129Z,97900.59
2023-08-29T01:28:21.898Z,97884.44
2023-08-29T01:30:50.406Z,97893.69
2023-08-29T01:33:20.555Z,97897.66
2023-08-29T01:35:48.489Z,97884.16
2023-08-29T01:38:19.532Z,97870.16
2023-08-29T01:40:47.078Z,97883.59
2023-08-29T01:43:14.512Z,97872.44
2023-08-29T01:45:42.336Z,97854.16
2023-08-29T01:48:12.473Z,97853.31
2023-08-29T01:50:40.827Z,97838.94
2023-08-29T01:53:09.522Z,97829.19
2023-08-29T01:55:38.411Z,97844.00
2023-08-29T01:58:07.132Z,97846.25
2023-08-29T02:00:36.941Z,97846.59
2023-08-29T02:03:04.797Z,97852.63
2023-08-29T02:05:32.269Z,97851.97
2023-08-29T02:08:00.141Z,97887.56
2023-08-29T02:10:31.404Z,97896.72
2023-08-29T02:12:58.846Z,97894.75
2023-08-29T02:15:26.280Z,97898.22
2023-08-29T02:17:54.625Z,97890.19
2023-08-29T02:20:22.680Z,97886.50
2023-08-29T02:22:50.081Z,97874.34
2023-08-29T02:25:17.621Z,97872.53
2023-08-29T02:27:45.383Z,97865.81
2023-08-29T02:30:13.190Z,97847.47
2023-08-29T02:32:41.323Z,97835.38
2023-08-29T02:35:11.557Z,97831.75
2023-08-29T02:37:39.314Z,97827.03
2023-08-29T02:40:10.465Z,97813.22
2023-08-29T02:42:38.295Z,97808.16
2023-08-29T02:45:06.113Z,97811.41
2023-08-29T02:47:33.640Z,97808.09
2023-08-29T02:50:02.187Z,97808.22
2023-08-29T02:52:29.878Z,97811.81
2023-08-29T02:54:57.418Z,97812.87
2023-08-29T02:57:25.776Z,97810.28
2023-08-29T02:59:53.335Z,97801.78
2023-08-29T03:02:20.827Z,97815.56
2023-08-29T03:04:48.580Z,97811.31
2023-08-29T03:07:16.025Z,97813.44
2023-08-29T03:09:43.450Z,97823.97
2023-08-29T03:12:11.197Z,97820.47
2023-08-29T03:14:38.626Z,97819.69
2023-08-29T03:17:06.720Z,97821.97
2023-08-29T03:19:34.490Z,97812.53
2023-08-29T03:22:01.931Z,97814.41
2023-08-29T03:24:29.909Z,97817.03
2023-08-29T03:26:57.637Z,97817.97
2023-08-29T03:29:25.074Z,97829.78
2023-08-29T03:31:52.660Z,97816.09
2023-08-29T03:34:20.391Z,97829.69
2023-08-29T03:36:47.851Z,97821.09
2023-08-29T03:39:15.302Z,97811.56
2023-08-29T03:41:43.045Z,97819.47
2023-08-29T03:44:10.437Z,97809.94
2023-08-29T03:46:37.860Z,97808.94
2023-08-29T03:49:05.532Z,97810.66
2023-08-29T03:51:34.126Z,97800.53
2023-08-29T03:54:01.588Z,97807.13
2023-08-29T03:56:29.520Z,97802.12
2023-08-29T03:58:57.033Z,97794.56
2023-08-29T04:01:24.540Z,97792.84
2023-08-29T04:03:54.264Z,97808.13
2023-08-29T04:06:22.228Z,97805.50
2023-08-29T04:08:49.759Z,97809.25
2023-08-29T04:11:19.116Z,97805.91
2023-08-29T04:13:47.039Z,97813.06
2023-08-29T04:16:14.495Z,97820.00
2023-08-29T04:18:42.866Z,97830.28
2023-08-29T04:21:10.841Z,97824.91
2023-08-29T04:23:38.408Z,97841.06
2023-08-29T04:26:06.217Z,97845.00
2023-08-29T04:28:33.784Z,97840.31
2023-08-29T04:31:11.175Z,97839.66
2023-08-29T04:33:40.203Z,97845.59
2023-08-29T04:36:09.123Z,97845.25
2023-08-29T04:38:36.669Z,97849.16
2023-08-29T04:41:05.145Z,97839.88
2023-08-29T04:43:32.600Z,97840.97
2023-08-29T04:46:00.709Z,97847.78
2023-08-29T04:48:28.726Z,97849.09
2023-08-29T04:50:56.152Z,97849.94
2023-08-29T04:53:24.360Z,97869.13
2023-08-29T04:56:02.330Z,97863.41
2023-08-29T04:58:34.097Z,97862.94
2023-08-29T05:01:02.145Z,97866.84
2023-08-29T05:03:29.693Z,97885.31
2023-08-29T05:05:58.832Z,97882.84
2023-08-29T05:08:26.662Z,97893.03
2023-08-29T05:10:54.075Z,97888.50
2023-08-29T05:13:21.501Z,97878.50
2023-08-29T05:15:49.248Z,97880.50
2023-08-29T05:18:16.770Z,97892.88
2023-08-29T05:20:44.632Z,97900.81
2023-08-29T05:23:12.308Z,97911.47
2023-08-29T05:25:40.869Z,97911.69
2023-08-29T05:28:08.668Z,97910.75
2023-08-29T05:30:36.717Z,97920.00
2023-08-29T05:33:04.197Z,97922.25
2023-08-29T05:35:31.716Z,97923.56
2023-08-29T05:37:59.572Z,97908.56
2023-08-29T05:40:26.983Z,97888.31
2023-08-29T05:42:54.401Z,97887.75
2023-08-29T05:45:22.118Z,97880.59
2023-08-29T05:47:49.580Z,97881.53
2023-08-29T05:50:17.095Z,97852.88
2023-08-29T05:52:44.853Z,97858.00
2023-08-29T05:55:12.288Z,97860.19
2023-08-29T05:57:39.713Z,97858.09
2023-08-29T06:00:13.680Z,97888.00
2023-08-29T06:02:41.673Z,97886.41
2023-08-29T06:05:10.197Z,97903.97
2023-08-29T06:07:40.079Z,97912.87
2023-08-29T06:10:08.828Z,97916.78
2023-08-29T06:12:36.609Z,97905.87
2023-08-29T06:15:04.153Z,97875.84
2023-08-29T06:17:32.133Z,97843.56
2023-08-29T06:19:59.874Z,97862.22
2023-08-29T06:22:27.286Z,97900.41
2023-08-29T06:24:56.037Z,97897.03
2023-08-29T06:27:23.818Z,97904.09
2023-08-29T06:29:51.227Z,97907.13
2023-08-29T06:32:18.762Z,97896.03
2023-08-29T06:34:46.496Z,97896.03
2023-08-29T06:37:14.972Z,97897.41
2023-08-29T06:39:43.928Z,97893.97
2023-08-29T06:42:11.602Z,97883.03
2023-08-29T06:44:39.064Z,97907.59
2023-08-29T06:47:06.505Z,97915.94
2023-08-29T06:49:34.225Z,97920.09
2023-08-29T06:52:01.672Z,97923.88
2023-08-29T06:54:31.838Z,97943.25
2023-08-29T06:56:59.782Z,97979.72
2023-08-29T06:59:27.258Z,97983.22
2023-08-29T07:01:54.709Z,98008.22
2023-08-29T07:04:22.445Z,98009.13
2023-08-29T07:06:49.914Z,97994.69
2023-08-29T07:09:17.497Z,97998.59
2023-08-29T07:11:45.188Z,97990.00
2023-08-29T07:14:12.597Z,97991.06
2023-08-29T07:16:40.043Z,98007.59
2023-08-29T07:19:07.732Z,98003.66
2023-08-29T07:21:35.192Z,98004.19
2023-08-29T07:24:02.613Z,97995.34
2023-08-29T07:26:30.314Z,97998.25
2023-08-29T07:28:57.788Z,98004.41
2023-08-29T07:31:25.185Z,98002.34
2023-08-29T07:33:52.965Z,98010.16
2023-08-29T07:36:20.384Z,97993.59
2023-08-29T07:38:47.905Z,97990.53
2023-08-29T07:41:15.673Z,97983.09
2023-08-29T07:43:43.098Z,97975.03
2023-08-29T07:46:10.550Z,97966.53
2023-08-29T07:48:38.258Z,97962.94
2023-08-29T07:51:05.656Z,97950.00
2023-08-29T07:53:33.073Z,97949.94
2023-08-29T07:56:00.814Z,97941.91
2023-08-29T07:58:28.264Z,97945.16
2023-08-29T08:00:55.856Z,97945.25
2023-08-29T08:03:23.602Z,97950.44
2023-08-29T08:05:51.531Z,97986.63
2023-08-29T08:08:20.232Z,98006.66
2023-08-29T08:10:47.930Z,97990.41
2023-08-29T08:13:15.362Z,98003.56
2023-08-29T08:15:42.927Z,97997.28
2023-08-29T08:18:10.860Z,97991.44
2023-08-29T08:20:38.488Z,98005.22
2023-08-29T08:23:07.311Z,98003.94
2023-08-29T08:25:35.232Z,97999.13
2023-08-29T08:28:02.644Z,98001.72
2023-08-29T08:30:30.156Z,98019.22
2023-08-29T08:32:57.845Z,98015.97
2023-08-29T08:35:26.583Z,98012.13
2023-08-29T08:37:54.861Z,98045.34
2023-08-29T08:40:22.591Z,98054.72
2023-08-29T08:42:50.068Z,98057.94
2023-08-29T08:45:17.914Z,98060.56
2023-08-29T08:47:46.682Z,98081.78
2023-08-29T08:50:14.160Z,98095.81
2023-08-29T08:52:41.955Z,98101.00
2023-08-29T08:55:10.100Z,98110.87
2023-08-29T08:57:37.804Z,98109.88
2023-08-29T09:00:07.777Z,98110.72
2023-08-29T09:02:38.864Z,98098.91
2023-08-29T09:05:25.323Z,98091.78
2023-08-29T09:07:53.079Z,98079.94
2023-08-29T09:10:21.153Z,98066.81
2023-08-29T09:12:53.079Z,98055.69
2023-08-29T09:15:21.146Z,98046.59
2023-08-29T09:17:49.893Z,98035.72
2023-08-29T09:20:18.182Z,98024.63
2023-08-29T09:22:46.816Z,98012.13
2023-08-29T09:25:14.592Z,98018.50
2023-08-29T09:27:44.363Z,98019.13
2023-08-29T09:30:13.465Z,98010.38
2023-08-29T09:32:49.135Z,98012.25
2023-08-29T09:35:20.134Z,98011.97
2023-08-29T09:37:53.477Z,97980.34
2023-08-29T09:42:59.556Z,97959.09
2023-08-29T09:45:31.454Z,97951.09
2023-08-29T09:48:03.703Z,97944.50
2023-08-29T09:50:32.159Z,97949.03
2023-08-29T09:53:00.813Z,97943.22
2023-08-29T09:55:33.877Z,97930.69
2023-08-29T09:58:02.746Z,97939.16
2023-08-29T10:00:30.999Z,97930.94
2023-08-29T10:02:59.728Z,97937.41
2023-08-29T10:05:29.483Z,97922.69
2023-08-29T10:08:19.779Z,97931.19
2023-08-29T10:10:48.459Z,97932.28
2023-08-29T10:13:16.884Z,97927.34
2023-08-29T10:15:45.464Z,97932.62
2023-08-29T10:18:14.098Z,97934.44
2023-08-29T10:20:44.933Z,97938.78
2023-08-29T10:23:14.996Z,97956.13
2023-08-29T10:25:43.179Z,97965.19
2023-08-29T10:28:13.388Z,97973.94
2023-08-29T10:30:44.700Z,97982.66
2023-08-29T10:33:12.887Z,98000.66
2023-08-29T10:35:40.923Z,97981.16
2023-08-29T10:38:15.194Z,97976.34
2023-08-29T10:40:44.519Z,97977.03
2023-08-29T10:43:22.716Z,97965.44
2023-08-29T10:45:53.761Z,97962.69
2023-08-29T10:48:45.411Z,97967.41
2023-08-29T10:51:27.832Z,97965.91
2023-08-29T10:54:12.317Z,97955.22
2023-08-29T10:56:44.552Z,97941.00
2023-08-29T10:59:32.467Z,97929.56
2023-08-29T11:02:33.323Z,97925.00
2023-08-29T11:05:03.593Z,97910.56
2023-08-29T11:07:32.592Z,97908.47
2023-08-29T11:10:21.245Z,97888.69
2023-08-29T11:13:09.086Z,97887.56
2023-08-29T11:15:48.547Z,97890.25
2023-08-29T11:18:36.165Z,97898.25
2023-08-29T11:23:43.044Z,97890.84
2023-08-29T11:26:10.983Z,97894.75
2023-08-29T11:28:46.580Z,97891.69
2023-08-29T11:31:14.198Z,97900.03
2023-08-29T11:33:41.973Z,97895.78
2023-08-29T11:36:11.021Z,97897.19
2023-08-29T11:38:38.839Z,97897.56
2023-08-29T11:41:24.997Z,97895.16
2023-08-29T11:44:30.800Z,97902.34
2023-08-29T11:46:45.093Z,97901.06
2023-08-29T11:49:14.578Z,97898.00
2023-08-29T11:51:42.297Z,97905.78
2023-08-29T11:54:42.602Z,97912.69
2023-08-29T11:57:14.248Z,97913.66
2023-08-29T11:59:45.869Z,97916.69
2023-08-29T12:02:18.684Z,97915.53
2023-08-29T12:04:48.580Z,97922.81
2023-08-29T12:07:17.852Z,97925.28
2023-08-29T12:09:47.413Z,97925.97
2023-08-29T12:12:37.505Z,97922.00
2023-08-29T12:15:15.358Z,97931.19
2023-08-29T12:17:48.440Z,97925.06
2023-08-29T12:20:16.599Z,97929.53
2023-08-29T12:22:51.856Z,97934.50
2023-08-29T12:25:20.599Z,97931.53
2023-08-29T12:27:49.056Z,97935.34
2023-08-29T12:30:16.945Z,97942.91
2023-08-29T12:32:45.918Z,97942.84
2023-08-29T12:35:16.540Z,97940.72
2023-08-29T12:37:44.065Z,97942.00
2023-08-29T12:40:13.486Z,97933.69
2023-08-29T12:42:42.167Z,97940.06
2023-08-29T12:45:10.418Z,97933.22
2023-08-29T12:47:40.751Z,97926.31
2023-08-29T12:50:09.447Z,97920.47
2023-08-29T12:52:37.000Z,97928.84
2023-08-29T12:55:05.643Z,97931.88
2023-08-29T12:57:33.360Z,97938.53
2023-08-29T13:00:00.796Z,97933.66
2023-08-29T13:02:28.356Z,97924.00
2023-08-29T13:04:56.218Z,97927.28
2023-08-29T13:07:23.639Z,97926.19
2023-08-29T13:09:52.898Z,97922.06
2023-08-29T13:12:21.895Z,97919.66
2023-08-29T13:14:49.365Z,97923.09
2023-08-29T13:17:17.685Z,97921.00
2023-08-29T13:19:45.592Z,97923.62
2023-08-29T13:22:13.101Z,97932.38
2023-08-29T13:24:40.600Z,97925.47
2023-08-29T13:27:09.356Z,97926.84
2023-08-29T13:29:36.896Z,97926.00
2023-08-29T13:32:04.526Z,97920.97
2023-08-29T13:34:50.781Z,97925.12
2023-08-29T13:37:18.283Z,97919.16
2023-08-29T13:39:46.201Z,97920.84
2023-08-29T13:42:13.815Z,97916.78
2023-08-29T13:44:42.217Z,97913.28
2023-08-29T13:47:11.247Z,97911.53
2023-08-29T13:49:41.130Z,97911.34
2023-08-29T13:52:09.480Z,97908.00
2023-08-29T13:54:37.326Z,97910.41
2023-08-29T13:57:06.031Z,97904.59
2023-08-29T13:59:33.457Z,97898.09
2023-08-29T14:02:02.686Z,97887.59
2023-08-29T14:04:33.560Z,97893.34
2023-08-29T14:07:01.567Z,97890.22
2023-08-29T14:09:29.721Z,97881.41
2023-08-29T14:11:57.549Z,97888.84
2023-08-29T14:14:25.422Z,97875.25
2023-08-29T14:16:54.249Z,97878.16
2023-08-29T14:19:23.254Z,97872.19
2023-08-29T14:21:51.852Z,97882.59
2023-08-29T14:24:21.416Z,97882.81
2023-08-29T14:26:50.633Z,97883.72
2023-08-29T14:29:18.278Z,97888.44
2023-08-29T14:31:46.140Z,97889.28
2023-08-29T14:34:14.546Z,97878.88
2023-08-29T14:36:42.246Z,97876.75
2023-08-29T14:39:10.230Z,97874.75
2023-08-29T14:41:38.341Z,97876.75
2023-08-29T14:44:06.255Z,97873.56
2023-08-29T14:46:33.726Z,97881.00
2023-08-29T14:49:04.010Z,97879.94
2023-08-29T14:51:31.922Z,97878.12
2023-08-29T14:54:04.462Z,97872.63
2023-08-29T14:56:33.242Z,97871.31
2023-08-29T14:59:00.910Z,97876.47
2023-08-29T15:01:28.375Z,97881.94
2023-08-29T15:03:56.967Z,97872.66
2023-08-29T15:06:27.007Z,97871.94
2023-08-29T15:08:55.298Z,97875.44
2023-08-29T15:11:23.995Z,97871.97
2023-08-29T15:13:51.947Z,97866.84
2023-08-29T15:16:20.004Z,97877.78
2023-08-29T15:18:47.911Z,97873.78
2023-08-29T15:21:17.538Z,97864.50
2023-08-29T15:23:48.249Z,97866.47
2023-08-29T15:26:17.273Z,97858.38
2023-08-29T15:28:44.788Z,97859.19
2023-08-29T15:31:12.619Z,97847.78
2023-08-29T15:33:40.845Z,97846.81
2023-08-29T15:36:09.037Z,97852.81
2023-08-29T15:38:37.562Z,97853.78
2023-08-29T15:41:06.993Z,97844.03
2023-08-29T15:43:36.112Z,97847.88
2023-08-29T15:46:06.920Z,97855.00
2023-08-29T15:48:36.290Z,97846.38
2023-08-29T15:51:06.226Z,97840.31
2023-08-29T15:53:37.515Z,97835.34
2023-08-29T15:56:08.452Z,97839.50
2023-08-29T15:58:36.827Z,97832.59
2023-08-29T16:01:08.312Z,97828.75
2023-08-29T16:03:36.576Z,97827.41
2023-08-29T16:06:08.806Z,97818.06
2023-08-29T16:08:37.665Z,97818.19
2023-08-29T16:11:05.626Z,97818.53
2023-08-29T16:13:33.640Z,97824.59
2023-08-29T16:16:02.454Z,97817.03
2023-08-29T16:18:30.255Z,97823.84
2023-08-29T16:20:58.914Z,97813.56
2023-08-29T16:23:27.025Z,97814.59
2023-08-29T16:25:54.980Z,97803.25
2023-08-29T16:28:24.500Z,97795.91
2023-08-29T16:30:52.976Z,97801.84
2023-08-29T16:33:22.834Z,97795.44
2023-08-29T16:35:51.264Z,97795.22
2023-08-29T16:38:20.428Z,97803.81
2023-08-29T16:40:51.449Z,97802.41
2023-08-29T16:43:22.170Z,97810.53
2023-08-29T16:45:49.804Z,97805.66
2023-08-29T16:48:18.656Z,97803.09
2023-08-29T16:50:49.431Z,97806.06
2023-08-29T16:53:17.178Z,97799.47
2023-08-29T16:55:46.191Z,97797.25
2023-08-29T16:58:14.296Z,97795.44
2023-08-29T17:00:43.723Z,97804.13
2023-08-29T17:03:12.623Z,97796.69
2023-08-29T17:05:43.465Z,97800.53
2023-08-29T17:08:13.572Z,97812.53
2023-08-29T17:10:42.896Z,97805.84
2023-08-29T17:13:11.334Z,97803.63
2023-08-29T17:15:39.586Z,97812.03
2023-08-29T17:18:07.751Z,97817.81
2023-08-29T17:20:36.106Z,97824.03
2023-08-29T17:23:04.534Z,97826.25
2023-08-29T17:25:33.334Z,97824.44
2023-08-29T17:28:01.944Z,97830.38
2023-08-29T17:30:30.086Z,97834.00
2023-08-29T17:32:58.546Z,97834.88
2023-08-29T17:35:26.790Z,97830.81
2023-08-29T17:37:55.083Z,97833.47
2023-08-29T17:40:23.295Z,97838.34
2023-08-29T17:42:51.388Z,97839.97
2023-08-29T17:45:20.149Z,97842.88
2023-08-29T17:47:50.033Z,97846.03
2023-08-29T17:50:19.061Z,97855.91
2023-08-29T17:52:48.986Z,97860.28
2023-08-29T17:55:18.330Z,97857.75
2023-08-29T17:57:50.101Z,97855.47
2023-08-29T18:00:20.760Z,97855.00
2023-08-29T18:02:48.980Z,97848.75
2023-08-29T18:05:17.210Z,97852.34
2023-08-29T18:07:45.291Z,97854.31
2023-08-29T18:10:18.310Z,97855.00
2023-08-29T18:12:46.641Z,97858.94
2023-08-29T18:15:16.218Z,97856.22
2023-08-29T18:17:44.201Z,97860.00
2023-08-29T18:20:12.744Z,97866.25
2023-08-29T18:22:41.645Z,97876.03
2023-08-29T18:25:10.066Z,97877.72
2023-08-29T18:27:38.106Z,97896.44
2023-08-29T18:30:08.435Z,97906.50
2023-08-29T18:32:37.041Z,97927.28
2023-08-29T18:35:05.852Z,97925.94
2023-08-29T18:37:35.667Z,97930.94
2023-08-29T18:40:04.376Z,97943.34
2023-08-29T18:42:34.574Z,97945.44
2023-08-29T18:45:05.392Z,97960.09
2023-08-29T18:47:34.166Z,97963.28
2023-08-29T18:50:03.100Z,97972.34
2023-08-29T18:52:31.852Z,97970.88
2023-08-29T18:55:01.148Z,97983.22
2023-08-29T18:57:34.238Z,97987.34
2023-08-29T19:00:02.524Z,98002.91
2023-08-29T19:02:31.580Z,98020.53
2023-08-29T19:05:01.727Z,98035.37
2023-08-29T19:07:31.752Z,98036.84
2023-08-29T19:10:02.995Z,98046.41
2023-08-29T19:12:33.644Z,98049.28
2023-08-29T19:15:06.385Z,98043.19
2023-08-29T19:17:35.178Z,98044.88
2023-08-29T19:20:05.089Z,98045.50
2023-08-29T19:22:35.664Z,98044.03
2023-08-29T19:25:04.805Z,98043.06
2023-08-29T19:27:33.446Z,98039.75
2023-08-29T19:30:07.896Z,98044.72
2023-08-29T19:32:37.263Z,98039.84
2023-08-29T19:35:05.872Z,98043.22
2023-08-29T19:37:34.373Z,98041.06
2023-08-29T19:40:03.544Z,98061.56
2023-08-29T19:42:31.841Z,98076.78
2023-08-29T19:45:00.434Z,98075.72
2023-08-29T19:47:29.657Z,98072.59
2023-08-29T19:49:58.442Z,98043.69
2023-08-29T19:52:28.426Z,98027.72
2023-08-29T19:54:58.366Z,98022.03
2023-08-29T19:57:27.326Z,98025.44
2023-08-29T19:59:55.871Z,98018.47
2023-08-29T20:02:24.946Z,98022.53
2023-08-29T20:04:53.959Z,98002.97
2023-08-29T20:07:22.429Z,98011.00
2023-08-29T20:09:51.228Z,98015.72
2023-08-29T20:12:20.612Z,98018.56
2023-08-29T20:14:49.218Z,98023.75
2023-08-29T20:17:17.966Z,98018.66
2023-08-29T20:19:46.630Z,98037.88
2023-08-29T20:22:14.850Z,98027.44
2023-08-29T20:24:43.507Z,98011.16
2023-08-29T20:27:12.682Z,98015.88
2023-08-29T20:29:40.786Z,98018.47
2023-08-29T20:32:10.708Z,98026.78
2023-08-29T20:34:39.782Z,98037.25
2023-08-29T20:37:08.512Z,98052.69
2023-08-29T20:39:37.210Z,98070.09
2023-08-29T20:42:07.509Z,98072.37
2023-08-29T20:44:35.213Z,98060.31
2023-08-29T20:47:02.800Z,98051.25
2023-08-29T20:49:31.128Z,98045.66
2023-08-29T20:51:58.778Z,98041.00
2023-08-29T20:54:27.366Z,98031.69
2023-08-29T20:56:55.981Z,98015.62
2023-08-29T20:59:24.049Z,98003.94
2023-08-29T21:01:51.819Z,98014.84
2023-08-29T21:04:19.552Z,98005.72
2023-08-29T21:06:47.013Z,97991.25
2023-08-29T21:09:17.148Z,97991.22
2023-08-29T21:11:45.141Z,98011.25
2023-08-29T21:14:12.589Z,98014.97
2023-08-29T21:16:40.100Z,98014.97
2023-08-29T21:19:07.854Z,97997.94
2023-08-29T21:21:35.394Z,98007.03
2023-08-29T21:24:02.840Z,98017.41
2023-08-29T21:26:30.997Z,98008.34
2023-08-29T21:28:58.500Z,97997.28
2023-08-29T21:31:26.949Z,97993.81
2023-08-29T21:33:54.704Z,97998.25
2023-08-29T21:36:22.147Z,97990.41
2023-08-29T21:38:49.602Z,97987.25
2023-08-29T21:41:17.325Z,97994.88
2023-08-29T21:43:44.796Z,97981.37
2023-08-29T21:46:12.338Z,97971.78
2023-08-29T21:48:40.059Z,97978.69
2023-08-29T21:51:12.046Z,97983.66
2023-08-29T21:53:39.882Z,97985.66
2023-08-29T21:56:10.612Z,97980.25
2023-08-29T21:58:38.017Z,97977.88
2023-08-29T22:01:05.757Z,97967.00
2023-08-29T22:03:33.689Z,97975.22
2023-08-29T22:06:01.180Z,97978.53
2023-08-29T22:08:28.606Z,97974.09
2023-08-29T22:10:56.338Z,97984.69
2023-08-29T22:13:23.770Z,97992.00
2023-08-29T22:15:52.214Z,97990.91
2023-08-29T22:18:19.994Z,97992.31
2023-08-29T22:20:49.009Z,97996.75
2023-08-29T22:23:16.457Z,97994.00
2023-08-29T22:25:44.202Z,98001.09
2023-08-29T22:28:11.665Z,98000.88
2023-08-29T22:30:42.001Z,97996.53
2023-08-29T22:33:09.838Z,98001.66
2023-08-29T22:35:42.752Z,98001.31
2023-08-29T22:38:12.439Z,97989.06
2023-08-29T22:40:40.268Z,97979.22
2023-08-29T22:43:07.987Z,97969.12
2023-08-29T22:45:35.711Z,97965.47
2023-08-29T22:48:03.527Z,97971.38
2023-08-29T22:50:30.955Z,97960.25
2023-08-29T22:52:58.641Z,97956.28
2023-08-29T22:55:27.429Z,97958.47
2023-08-29T22:57:54.840Z,97953.53
2023-08-29T23:00:22.549Z,97956.88
2023-08-29T23:02:50.066Z,97958.16
2023-08-29T23:05:17.574Z,97957.91
2023-08-29T23:07:45.266Z,97959.88
2023-08-29T23:10:12.773Z,97967.25
2023-08-29T23:12:40.171Z,97972.78
2023-08-29T23:15:08.116Z,97968.97
2023-08-29T23:17:35.538Z,97967.03
2023-08-29T23:20:05.438Z,97968.59
2023-08-29T23:22:33.092Z,97969.09
2023-08-29T23:25:00.497Z,97966.37
2023-08-29T23:27:27.884Z,97959.59
2023-08-29T23:29:55.707Z,97957.06
2023-08-29T23:32:24.690Z,97954.25
2023-08-29T23:34:53.196Z,97966.47
2023-08-29T23:37:21.221Z,97976.88
2023-08-29T23:39:50.043Z,97972.72
2023-08-29T23:42:17.476Z,97975.69
2023-08-29T23:44:45.703Z,97966.13
2023-08-29T23:47:13.276Z,97977.31
2023-08-29T23:49:40.734Z,97986.34
2023-08-29T23:52:08.744Z,97987.13
2023-08-29T23:54:36.226Z,97991.41
2023-08-29T23:57:03.812Z,97993.66
2023-08-29T23:59:31.568Z,97997.53
